sensor_id;sensor_type;location;lat;lon;timestamp;P1;durP1;ratioP1;P2;durP2;ratioP2
39772;SDS011;25451;51.960;6.250;2023-11-22T00:01:55;10.03;;;5.20;;
39772;SDS011;25451;51.960;6.250;2023-11-22T00:04:20;10.40;;;5.17;;
39772;SDS011;25451;51.960;6.250;2023-11-22T00:06:45;11.00;;;5.27;;
39772;SDS011;25451;51.960;6.250;2023-11-22T00:09:11;12.53;;;5.53;;
39772;SDS011;25451;51.960;6.250;2023-11-22T00:11:36;13.33;;;5.73;;
39772;SDS011;25451;51.960;6.250;2023-11-22T00:14:02;12.07;;;6.03;;
39772;SDS011;25451;51.960;6.250;2023-11-22T00:16:27;14.00;;;6.20;;
39772;SDS011;25451;51.960;6.250;2023-11-22T00:18:53;13.27;;;5.83;;
39772;SDS011;25451;51.960;6.250;2023-11-22T00:21:18;12.20;;;5.70;;
39772;SDS011;25451;51.960;6.250;2023-11-22T00:23:44;12.90;;;5.78;;
39772;SDS011;25451;51.960;6.250;2023-11-22T00:26:10;12.23;;;5.30;;
39772;SDS011;25451;51.960;6.250;2023-11-22T00:28:36;10.93;;;5.03;;
39772;SDS011;25451;51.960;6.250;2023-11-22T00:31:01;9.13;;;4.87;;
39772;SDS011;25451;51.960;6.250;2023-11-22T00:33:26;10.40;;;5.20;;
39772;SDS011;25451;51.960;6.250;2023-11-22T00:35:52;11.20;;;4.97;;
39772;SDS011;25451;51.960;6.250;2023-11-22T00:38:18;10.07;;;4.53;;
39772;SDS011;25451;51.960;6.250;2023-11-22T00:40:44;12.67;;;5.20;;
39772;SDS011;25451;51.960;6.250;2023-11-22T00:43:09;14.75;;;5.85;;
39772;SDS011;25451;51.960;6.250;2023-11-22T00:45:34;11.70;;;5.63;;
39772;SDS011;25451;51.960;6.250;2023-11-22T00:48:00;11.13;;;5.53;;
39772;SDS011;25451;51.960;6.250;2023-11-22T00:50:25;13.63;;;5.77;;
39772;SDS011;25451;51.960;6.250;2023-11-22T00:52:51;12.43;;;5.27;;
39772;SDS011;25451;51.960;6.250;2023-11-22T00:55:16;11.43;;;5.27;;
39772;SDS011;25451;51.960;6.250;2023-11-22T00:57:41;11.07;;;5.00;;
39772;SDS011;25451;51.960;6.250;2023-11-22T01:00:07;11.15;;;5.40;;
39772;SDS011;25451;51.960;6.250;2023-11-22T01:02:34;11.47;;;5.07;;
39772;SDS011;25451;51.960;6.250;2023-11-22T01:05:02;10.05;;;5.03;;
39772;SDS011;25451;51.960;6.250;2023-11-22T01:07:30;11.35;;;5.57;;
39772;SDS011;25451;51.960;6.250;2023-11-22T01:09:55;10.87;;;4.90;;
39772;SDS011;25451;51.960;6.250;2023-11-22T01:12:20;12.47;;;4.97;;
39772;SDS011;25451;51.960;6.250;2023-11-22T01:14:45;10.17;;;4.70;;
39772;SDS011;25451;51.960;6.250;2023-11-22T01:17:11;8.87;;;4.73;;
39772;SDS011;25451;51.960;6.250;2023-11-22T01:19:36;10.10;;;5.13;;
39772;SDS011;25451;51.960;6.250;2023-11-22T01:22:02;11.88;;;5.15;;
39772;SDS011;25451;51.960;6.250;2023-11-22T01:24:27;10.77;;;4.80;;
39772;SDS011;25451;51.960;6.250;2023-11-22T01:26:53;11.13;;;5.10;;
39772;SDS011;25451;51.960;6.250;2023-11-22T01:29:18;12.95;;;5.93;;
39772;SDS011;25451;51.960;6.250;2023-11-22T01:31:44;13.05;;;5.82;;
39772;SDS011;25451;51.960;6.250;2023-11-22T01:34:09;13.90;;;5.40;;
39772;SDS011;25451;51.960;6.250;2023-11-22T01:36:34;11.33;;;5.37;;
39772;SDS011;25451;51.960;6.250;2023-11-22T01:38:59;10.70;;;4.90;;
39772;SDS011;25451;51.960;6.250;2023-11-22T01:41:25;11.00;;;5.10;;
39772;SDS011;25451;51.960;6.250;2023-11-22T01:43:50;11.23;;;5.30;;
39772;SDS011;25451;51.960;6.250;2023-11-22T01:46:22;10.87;;;5.23;;
39772;SDS011;25451;51.960;6.250;2023-11-22T01:48:50;10.45;;;5.18;;
39772;SDS011;25451;51.960;6.250;2023-11-22T01:51:17;9.50;;;4.75;;
39772;SDS011;25451;51.960;6.250;2023-11-22T01:53:44;10.55;;;4.70;;
39772;SDS011;25451;51.960;6.250;2023-11-22T01:56:10;10.67;;;5.20;;
39772;SDS011;25451;51.960;6.250;2023-11-22T01:58:36;9.95;;;4.75;;
39772;SDS011;25451;51.960;6.250;2023-11-22T02:01:01;9.68;;;4.90;;
39772;SDS011;25451;51.960;6.250;2023-11-22T02:03:27;10.93;;;4.60;;
39772;SDS011;25451;51.960;6.250;2023-11-22T02:05:52;10.53;;;4.67;;
39772;SDS011;25451;51.960;6.250;2023-11-22T02:08:19;10.40;;;4.60;;
39772;SDS011;25451;51.960;6.250;2023-11-22T02:10:44;10.13;;;4.90;;
39772;SDS011;25451;51.960;6.250;2023-11-22T02:13:12;11.95;;;4.97;;
39772;SDS011;25451;51.960;6.250;2023-11-22T02:15:37;9.93;;;4.93;;
39772;SDS011;25451;51.960;6.250;2023-11-22T02:18:03;11.00;;;4.60;;
39772;SDS011;25451;51.960;6.250;2023-11-22T02:20:30;9.45;;;4.75;;
39772;SDS011;25451;51.960;6.250;2023-11-22T02:22:55;10.20;;;4.85;;
39772;SDS011;25451;51.960;6.250;2023-11-22T02:25:22;9.33;;;4.67;;
39772;SDS011;25451;51.960;6.250;2023-11-22T02:27:47;10.65;;;4.65;;
39772;SDS011;25451;51.960;6.250;2023-11-22T02:30:13;9.53;;;4.80;;
39772;SDS011;25451;51.960;6.250;2023-11-22T02:32:38;10.63;;;5.00;;
39772;SDS011;25451;51.960;6.250;2023-11-22T02:35:06;10.15;;;4.88;;
39772;SDS011;25451;51.960;6.250;2023-11-22T02:37:33;11.60;;;4.70;;
39772;SDS011;25451;51.960;6.250;2023-11-22T02:42:34;8.63;;;4.13;;
39772;SDS011;25451;51.960;6.250;2023-11-22T02:44:59;11.82;;;4.75;;
39772;SDS011;25451;51.960;6.250;2023-11-22T02:47:24;10.90;;;4.70;;
39772;SDS011;25451;51.960;6.250;2023-11-22T02:49:50;10.13;;;4.55;;
39772;SDS011;25451;51.960;6.250;2023-11-22T02:52:15;9.37;;;4.17;;
39772;SDS011;25451;51.960;6.250;2023-11-22T02:54:44;11.10;;;4.50;;
39772;SDS011;25451;51.960;6.250;2023-11-22T02:57:10;8.80;;;4.30;;
39772;SDS011;25451;51.960;6.250;2023-11-22T02:59:36;10.23;;;4.67;;
39772;SDS011;25451;51.960;6.250;2023-11-22T03:02:01;9.87;;;4.33;;
39772;SDS011;25451;51.960;6.250;2023-11-22T03:04:27;8.03;;;4.30;;
39772;SDS011;25451;51.960;6.250;2023-11-22T03:06:53;9.30;;;4.18;;
39772;SDS011;25451;51.960;6.250;2023-11-22T03:09:18;8.43;;;4.10;;
39772;SDS011;25451;51.960;6.250;2023-11-22T03:11:44;8.47;;;3.90;;
39772;SDS011;25451;51.960;6.250;2023-11-22T03:14:09;10.30;;;4.00;;
39772;SDS011;25451;51.960;6.250;2023-11-22T03:16:34;8.13;;;3.97;;
39772;SDS011;25451;51.960;6.250;2023-11-22T03:18:59;9.83;;;4.70;;
39772;SDS011;25451;51.960;6.250;2023-11-22T03:21:25;8.00;;;4.10;;
39772;SDS011;25451;51.960;6.250;2023-11-22T03:23:52;9.00;;;3.85;;
39772;SDS011;25451;51.960;6.250;2023-11-22T03:26:17;8.73;;;3.83;;
39772;SDS011;25451;51.960;6.250;2023-11-22T03:28:44;12.10;;;4.50;;
39772;SDS011;25451;51.960;6.250;2023-11-22T03:31:09;8.67;;;4.17;;
39772;SDS011;25451;51.960;6.250;2023-11-22T03:33:35;6.93;;;3.43;;
39772;SDS011;25451;51.960;6.250;2023-11-22T03:36:00;8.93;;;3.97;;
39772;SDS011;25451;51.960;6.250;2023-11-22T03:38:27;8.13;;;3.90;;
39772;SDS011;25451;51.960;6.250;2023-11-22T03:40:52;10.90;;;4.00;;
39772;SDS011;25451;51.960;6.250;2023-11-22T03:43:18;8.50;;;4.25;;
39772;SDS011;25451;51.960;6.250;2023-11-22T03:45:44;8.53;;;3.97;;
39772;SDS011;25451;51.960;6.250;2023-11-22T03:48:09;9.07;;;4.05;;
39772;SDS011;25451;51.960;6.250;2023-11-22T03:50:34;9.43;;;4.03;;
39772;SDS011;25451;51.960;6.250;2023-11-22T03:52:59;8.38;;;3.88;;
39772;SDS011;25451;51.960;6.250;2023-11-22T03:55:25;9.67;;;3.77;;
39772;SDS011;25451;51.960;6.250;2023-11-22T03:57:50;9.07;;;3.80;;
39772;SDS011;25451;51.960;6.250;2023-11-22T04:00:15;7.80;;;3.70;;
39772;SDS011;25451;51.960;6.250;2023-11-22T04:02:41;8.63;;;3.60;;
39772;SDS011;25451;51.960;6.250;2023-11-22T04:05:07;9.43;;;3.95;;
39772;SDS011;25451;51.960;6.250;2023-11-22T04:07:32;10.07;;;3.80;;
39772;SDS011;25451;51.960;6.250;2023-11-22T04:09:58;8.75;;;4.22;;
39772;SDS011;25451;51.960;6.250;2023-11-22T04:12:24;8.43;;;4.10;;
39772;SDS011;25451;51.960;6.250;2023-11-22T04:14:49;10.55;;;4.13;;
39772;SDS011;25451;51.960;6.250;2023-11-22T04:17:16;9.80;;;4.30;;
39772;SDS011;25451;51.960;6.250;2023-11-22T04:19:42;9.23;;;4.53;;
39772;SDS011;25451;51.960;6.250;2023-11-22T04:22:07;8.83;;;4.10;;
39772;SDS011;25451;51.960;6.250;2023-11-22T04:24:32;8.13;;;3.77;;
39772;SDS011;25451;51.960;6.250;2023-11-22T04:26:57;7.70;;;3.83;;
39772;SDS011;25451;51.960;6.250;2023-11-22T04:29:23;7.83;;;3.73;;
39772;SDS011;25451;51.960;6.250;2023-11-22T04:31:48;8.63;;;3.80;;
39772;SDS011;25451;51.960;6.250;2023-11-22T04:34:14;7.97;;;3.87;;
39772;SDS011;25451;51.960;6.250;2023-11-22T04:36:39;10.07;;;3.77;;
39772;SDS011;25451;51.960;6.250;2023-11-22T04:39:04;8.73;;;3.80;;
39772;SDS011;25451;51.960;6.250;2023-11-22T04:41:31;6.95;;;3.25;;
39772;SDS011;25451;51.960;6.250;2023-11-22T04:43:57;10.00;;;3.80;;
39772;SDS011;25451;51.960;6.250;2023-11-22T04:46:22;7.80;;;3.53;;
39772;SDS011;25451;51.960;6.250;2023-11-22T04:48:47;7.05;;;3.47;;
39772;SDS011;25451;51.960;6.250;2023-11-22T04:51:16;7.37;;;3.37;;
39772;SDS011;25451;51.960;6.250;2023-11-22T04:53:41;6.93;;;3.70;;
39772;SDS011;25451;51.960;6.250;2023-11-22T04:56:09;7.53;;;3.47;;
39772;SDS011;25451;51.960;6.250;2023-11-22T04:58:34;12.40;;;3.50;;
39772;SDS011;25451;51.960;6.250;2023-11-22T05:00:59;6.43;;;3.30;;
39772;SDS011;25451;51.960;6.250;2023-11-22T05:03:26;6.13;;;3.17;;
39772;SDS011;25451;51.960;6.250;2023-11-22T05:05:52;6.30;;;3.33;;
39772;SDS011;25451;51.960;6.250;2023-11-22T05:08:17;6.75;;;3.17;;
39772;SDS011;25451;51.960;6.250;2023-11-22T05:10:43;7.97;;;3.30;;
39772;SDS011;25451;51.960;6.250;2023-11-22T05:13:09;8.10;;;3.10;;
39772;SDS011;25451;51.960;6.250;2023-11-22T05:15:34;6.13;;;3.20;;
39772;SDS011;25451;51.960;6.250;2023-11-22T05:17:59;6.13;;;3.20;;
39772;SDS011;25451;51.960;6.250;2023-11-22T05:20:25;7.07;;;3.30;;
39772;SDS011;25451;51.960;6.250;2023-11-22T05:22:50;6.40;;;3.17;;
39772;SDS011;25451;51.960;6.250;2023-11-22T05:25:16;8.47;;;3.20;;
39772;SDS011;25451;51.960;6.250;2023-11-22T05:27:41;8.20;;;3.40;;
39772;SDS011;25451;51.960;6.250;2023-11-22T05:30:07;6.88;;;3.35;;
39772;SDS011;25451;51.960;6.250;2023-11-22T05:32:32;8.50;;;3.67;;
39772;SDS011;25451;51.960;6.250;2023-11-22T05:34:58;7.18;;;3.40;;
39772;SDS011;25451;51.960;6.250;2023-11-22T05:37:24;9.37;;;3.83;;
39772;SDS011;25451;51.960;6.250;2023-11-22T05:39:49;9.53;;;3.67;;
39772;SDS011;25451;51.960;6.250;2023-11-22T05:42:15;10.97;;;4.27;;
39772;SDS011;25451;51.960;6.250;2023-11-22T05:44:40;9.90;;;3.77;;
39772;SDS011;25451;51.960;6.250;2023-11-22T05:47:05;10.90;;;4.07;;
39772;SDS011;25451;51.960;6.250;2023-11-22T05:49:30;8.57;;;4.10;;
39772;SDS011;25451;51.960;6.250;2023-11-22T05:51:56;9.40;;;3.97;;
39772;SDS011;25451;51.960;6.250;2023-11-22T05:54:21;8.82;;;3.95;;
39772;SDS011;25451;51.960;6.250;2023-11-22T05:56:46;9.35;;;4.18;;
39772;SDS011;25451;51.960;6.250;2023-11-22T05:59:11;10.07;;;4.63;;
39772;SDS011;25451;51.960;6.250;2023-11-22T06:01:37;10.05;;;4.10;;
39772;SDS011;25451;51.960;6.250;2023-11-22T06:04:02;9.53;;;4.07;;
39772;SDS011;25451;51.960;6.250;2023-11-22T06:06:27;8.77;;;4.00;;
39772;SDS011;25451;51.960;6.250;2023-11-22T06:08:53;8.60;;;3.70;;
39772;SDS011;25451;51.960;6.250;2023-11-22T06:11:18;8.50;;;3.60;;
39772;SDS011;25451;51.960;6.250;2023-11-22T06:13:44;10.18;;;4.32;;
39772;SDS011;25451;51.960;6.250;2023-11-22T06:16:11;9.20;;;4.03;;
39772;SDS011;25451;51.960;6.250;2023-11-22T06:18:36;10.88;;;3.95;;
39772;SDS011;25451;51.960;6.250;2023-11-22T06:21:05;8.02;;;3.80;;
39772;SDS011;25451;51.960;6.250;2023-11-22T06:23:31;7.72;;;3.90;;
39772;SDS011;25451;51.960;6.250;2023-11-22T06:25:56;8.90;;;3.97;;
39772;SDS011;25451;51.960;6.250;2023-11-22T06:28:22;9.23;;;4.43;;
39772;SDS011;25451;51.960;6.250;2023-11-22T06:30:47;9.30;;;3.93;;
39772;SDS011;25451;51.960;6.250;2023-11-22T06:33:13;9.65;;;4.10;;
39772;SDS011;25451;51.960;6.250;2023-11-22T06:35:38;8.30;;;3.80;;
39772;SDS011;25451;51.960;6.250;2023-11-22T06:38:03;8.17;;;4.03;;
39772;SDS011;25451;51.960;6.250;2023-11-22T06:40:28;6.67;;;3.43;;
39772;SDS011;25451;51.960;6.250;2023-11-22T06:42:54;8.77;;;3.63;;
39772;SDS011;25451;51.960;6.250;2023-11-22T06:45:20;8.30;;;3.93;;
39772;SDS011;25451;51.960;6.250;2023-11-22T06:47:46;12.67;;;3.87;;
39772;SDS011;25451;51.960;6.250;2023-11-22T06:50:11;10.07;;;4.03;;
39772;SDS011;25451;51.960;6.250;2023-11-22T06:52:40;8.30;;;3.80;;
39772;SDS011;25451;51.960;6.250;2023-11-22T06:55:09;10.27;;;4.05;;
39772;SDS011;25451;51.960;6.250;2023-11-22T06:57:35;9.13;;;4.13;;
39772;SDS011;25451;51.960;6.250;2023-11-22T07:00:01;8.43;;;3.45;;
39772;SDS011;25451;51.960;6.250;2023-11-22T07:02:30;6.87;;;3.47;;
39772;SDS011;25451;51.960;6.250;2023-11-22T07:05:00;9.25;;;4.10;;
39772;SDS011;25451;51.960;6.250;2023-11-22T07:07:25;8.73;;;3.47;;
39772;SDS011;25451;51.960;6.250;2023-11-22T07:09:51;7.50;;;3.37;;
39772;SDS011;25451;51.960;6.250;2023-11-22T07:12:16;6.70;;;3.33;;
39772;SDS011;25451;51.960;6.250;2023-11-22T07:14:41;5.97;;;3.00;;
39772;SDS011;25451;51.960;6.250;2023-11-22T07:17:08;9.70;;;3.67;;
39772;SDS011;25451;51.960;6.250;2023-11-22T07:19:33;6.90;;;3.40;;
39772;SDS011;25451;51.960;6.250;2023-11-22T07:22:06;7.00;;;3.28;;
39772;SDS011;25451;51.960;6.250;2023-11-22T07:24:40;8.88;;;3.20;;
39772;SDS011;25451;51.960;6.250;2023-11-22T07:27:11;5.90;;;3.00;;
39772;SDS011;25451;51.960;6.250;2023-11-22T07:29:40;7.47;;;3.22;;
39772;SDS011;25451;51.960;6.250;2023-11-22T07:32:07;6.82;;;3.35;;
39772;SDS011;25451;51.960;6.250;2023-11-22T07:34:33;6.80;;;2.85;;
39772;SDS011;25451;51.960;6.250;2023-11-22T07:37:02;6.18;;;3.33;;
39772;SDS011;25451;51.960;6.250;2023-11-22T07:39:28;6.83;;;3.60;;
39772;SDS011;25451;51.960;6.250;2023-11-22T07:41:54;7.43;;;3.20;;
39772;SDS011;25451;51.960;6.250;2023-11-22T07:44:20;7.37;;;3.30;;
39772;SDS011;25451;51.960;6.250;2023-11-22T07:46:46;7.78;;;3.55;;
39772;SDS011;25451;51.960;6.250;2023-11-22T07:49:11;8.00;;;4.10;;
39772;SDS011;25451;51.960;6.250;2023-11-22T07:51:38;7.45;;;3.95;;
39772;SDS011;25451;51.960;6.250;2023-11-22T07:54:04;9.57;;;4.57;;
39772;SDS011;25451;51.960;6.250;2023-11-22T07:56:30;9.70;;;4.67;;
39772;SDS011;25451;51.960;6.250;2023-11-22T07:58:57;10.55;;;3.78;;
39772;SDS011;25451;51.960;6.250;2023-11-22T08:01:23;8.70;;;3.73;;
39772;SDS011;25451;51.960;6.250;2023-11-22T08:03:48;9.63;;;4.30;;
39772;SDS011;25451;51.960;6.250;2023-11-22T08:06:16;9.10;;;4.35;;
39772;SDS011;25451;51.960;6.250;2023-11-22T08:08:42;9.02;;;4.22;;
39772;SDS011;25451;51.960;6.250;2023-11-22T08:11:07;11.20;;;4.60;;
39772;SDS011;25451;51.960;6.250;2023-11-22T08:13:40;9.37;;;4.13;;
39772;SDS011;25451;51.960;6.250;2023-11-22T08:16:06;9.60;;;4.20;;
39772;SDS011;25451;51.960;6.250;2023-11-22T08:18:31;9.37;;;4.53;;
39772;SDS011;25451;51.960;6.250;2023-11-22T08:20:56;9.57;;;3.97;;
39772;SDS011;25451;51.960;6.250;2023-11-22T08:23:22;8.23;;;4.03;;
39772;SDS011;25451;51.960;6.250;2023-11-22T08:25:47;10.50;;;4.43;;
39772;SDS011;25451;51.960;6.250;2023-11-22T08:28:12;8.40;;;4.00;;
39772;SDS011;25451;51.960;6.250;2023-11-22T08:30:38;8.20;;;4.22;;
39772;SDS011;25451;51.960;6.250;2023-11-22T08:33:06;9.60;;;4.80;;
39772;SDS011;25451;51.960;6.250;2023-11-22T08:35:31;9.30;;;4.33;;
39772;SDS011;25451;51.960;6.250;2023-11-22T08:37:56;8.50;;;4.10;;
39772;SDS011;25451;51.960;6.250;2023-11-22T08:40:23;10.10;;;4.57;;
39772;SDS011;25451;51.960;6.250;2023-11-22T08:42:49;9.80;;;4.80;;
39772;SDS011;25451;51.960;6.250;2023-11-22T08:45:14;10.45;;;5.07;;
39772;SDS011;25451;51.960;6.250;2023-11-22T08:47:40;13.13;;;5.63;;
39772;SDS011;25451;51.960;6.250;2023-11-22T08:50:06;11.97;;;5.17;;
39772;SDS011;25451;51.960;6.250;2023-11-22T08:52:38;11.88;;;5.10;;
39772;SDS011;25451;51.960;6.250;2023-11-22T08:55:05;13.35;;;5.63;;
39772;SDS011;25451;51.960;6.250;2023-11-22T08:57:32;13.10;;;5.90;;
39772;SDS011;25451;51.960;6.250;2023-11-22T09:00:05;11.00;;;4.90;;
39772;SDS011;25451;51.960;6.250;2023-11-22T09:02:34;13.10;;;5.80;;
39772;SDS011;25451;51.960;6.250;2023-11-22T09:05:05;13.60;;;6.30;;
39772;SDS011;25451;51.960;6.250;2023-11-22T09:07:33;11.85;;;5.47;;
39772;SDS011;25451;51.960;6.250;2023-11-22T09:10:03;12.33;;;5.57;;
39772;SDS011;25451;51.960;6.250;2023-11-22T09:12:37;12.25;;;5.88;;
39772;SDS011;25451;51.960;6.250;2023-11-22T09:15:06;13.60;;;6.18;;
39772;SDS011;25451;51.960;6.250;2023-11-22T09:17:42;12.02;;;5.82;;
39772;SDS011;25451;51.960;6.250;2023-11-22T09:25:24;12.55;;;5.18;;
39772;SDS011;25451;51.960;6.250;2023-11-22T09:27:53;10.65;;;5.07;;
39772;SDS011;25451;51.960;6.250;2023-11-22T09:30:29;11.23;;;5.35;;
39772;SDS011;25451;51.960;6.250;2023-11-22T09:33:08;11.38;;;5.82;;
39772;SDS011;25451;51.960;6.250;2023-11-22T09:35:34;12.70;;;5.70;;
39772;SDS011;25451;51.960;6.250;2023-11-22T09:38:01;13.10;;;6.47;;
39772;SDS011;25451;51.960;6.250;2023-11-22T09:40:27;12.95;;;5.70;;
39772;SDS011;25451;51.960;6.250;2023-11-22T09:43:01;10.82;;;4.95;;
39772;SDS011;25451;51.960;6.250;2023-11-22T09:45:27;12.20;;;5.88;;
39772;SDS011;25451;51.960;6.250;2023-11-22T09:47:57;11.03;;;5.73;;
39772;SDS011;25451;51.960;6.250;2023-11-22T09:53:06;12.68;;;5.78;;
39772;SDS011;25451;51.960;6.250;2023-11-22T09:55:37;13.00;;;6.47;;
39772;SDS011;25451;51.960;6.250;2023-11-22T09:58:04;13.65;;;6.40;;
39772;SDS011;25451;51.960;6.250;2023-11-22T10:00:30;12.27;;;5.93;;
39772;SDS011;25451;51.960;6.250;2023-11-22T10:02:57;12.65;;;6.00;;
39772;SDS011;25451;51.960;6.250;2023-11-22T10:05:23;13.95;;;6.68;;
39772;SDS011;25451;51.960;6.250;2023-11-22T10:07:48;14.48;;;6.60;;
39772;SDS011;25451;51.960;6.250;2023-11-22T10:10:14;12.47;;;6.20;;
39772;SDS011;25451;51.960;6.250;2023-11-22T10:12:44;14.95;;;6.70;;
39772;SDS011;25451;51.960;6.250;2023-11-22T10:15:10;14.48;;;6.82;;
39772;SDS011;25451;51.960;6.250;2023-11-22T10:17:39;13.52;;;6.38;;
39772;SDS011;25451;51.960;6.250;2023-11-22T10:20:05;13.57;;;6.35;;
39772;SDS011;25451;51.960;6.250;2023-11-22T10:22:45;13.17;;;6.20;;
39772;SDS011;25451;51.960;6.250;2023-11-22T10:25:13;15.27;;;6.38;;
39772;SDS011;25451;51.960;6.250;2023-11-22T10:27:43;13.25;;;6.80;;
39772;SDS011;25451;51.960;6.250;2023-11-22T10:30:11;15.15;;;6.57;;
39772;SDS011;25451;51.960;6.250;2023-11-22T10:32:37;13.00;;;5.53;;
39772;SDS011;25451;51.960;6.250;2023-11-22T10:35:04;13.55;;;6.15;;
39772;SDS011;25451;51.960;6.250;2023-11-22T10:37:31;13.40;;;6.18;;
39772;SDS011;25451;51.960;6.250;2023-11-22T10:39:57;14.20;;;6.53;;
39772;SDS011;25451;51.960;6.250;2023-11-22T10:42:23;14.38;;;5.70;;
39772;SDS011;25451;51.960;6.250;2023-11-22T10:44:49;12.43;;;5.47;;
39772;SDS011;25451;51.960;6.250;2023-11-22T10:47:15;11.90;;;5.55;;
39772;SDS011;25451;51.960;6.250;2023-11-22T10:49:44;11.97;;;5.27;;
39772;SDS011;25451;51.960;6.250;2023-11-22T10:52:09;11.90;;;5.30;;
39772;SDS011;25451;51.960;6.250;2023-11-22T10:54:38;12.60;;;5.78;;
39772;SDS011;25451;51.960;6.250;2023-11-22T10:57:13;11.40;;;5.47;;
39772;SDS011;25451;51.960;6.250;2023-11-22T10:59:44;12.02;;;6.00;;
39772;SDS011;25451;51.960;6.250;2023-11-22T11:02:18;11.73;;;5.78;;
39772;SDS011;25451;51.960;6.250;2023-11-22T11:04:51;11.10;;;5.50;;
39772;SDS011;25451;51.960;6.250;2023-11-22T11:07:24;12.95;;;5.80;;
39772;SDS011;25451;51.960;6.250;2023-11-22T11:09:53;13.70;;;5.80;;
39772;SDS011;25451;51.960;6.250;2023-11-22T11:12:22;13.25;;;5.70;;
39772;SDS011;25451;51.960;6.250;2023-11-22T11:14:47;12.18;;;5.82;;
39772;SDS011;25451;51.960;6.250;2023-11-22T11:17:14;11.40;;;5.93;;
39772;SDS011;25451;51.960;6.250;2023-11-22T11:19:40;11.57;;;5.65;;
39772;SDS011;25451;51.960;6.250;2023-11-22T11:22:09;10.98;;;5.82;;
39772;SDS011;25451;51.960;6.250;2023-11-22T11:24:39;12.50;;;6.00;;
39772;SDS011;25451;51.960;6.250;2023-11-22T11:27:06;13.80;;;5.40;;
39772;SDS011;25451;51.960;6.250;2023-11-22T11:29:33;10.43;;;5.38;;
39772;SDS011;25451;51.960;6.250;2023-11-22T11:32:03;11.55;;;5.75;;
39772;SDS011;25451;51.960;6.250;2023-11-22T11:34:29;15.68;;;6.22;;
39772;SDS011;25451;51.960;6.250;2023-11-22T11:36:55;11.23;;;5.53;;
39772;SDS011;25451;51.960;6.250;2023-11-22T11:39:26;11.90;;;5.97;;
39772;SDS011;25451;51.960;6.250;2023-11-22T11:42:07;12.68;;;5.63;;
39772;SDS011;25451;51.960;6.250;2023-11-22T11:44:33;13.02;;;6.00;;
39772;SDS011;25451;51.960;6.250;2023-11-22T11:46:59;12.40;;;5.70;;
39772;SDS011;25451;51.960;6.250;2023-11-22T11:49:34;13.25;;;6.10;;
39772;SDS011;25451;51.960;6.250;2023-11-22T11:52:02;12.02;;;5.95;;
39772;SDS011;25451;51.960;6.250;2023-11-22T11:54:28;12.38;;;5.53;;
39772;SDS011;25451;51.960;6.250;2023-11-22T11:56:57;14.17;;;5.97;;
39772;SDS011;25451;51.960;6.250;2023-11-22T11:59:23;12.02;;;5.60;;
39772;SDS011;25451;51.960;6.250;2023-11-22T12:01:52;12.17;;;5.67;;
39772;SDS011;25451;51.960;6.250;2023-11-22T12:04:18;11.70;;;4.72;;
39772;SDS011;25451;51.960;6.250;2023-11-22T12:06:43;9.27;;;5.30;;
39772;SDS011;25451;51.960;6.250;2023-11-22T12:09:08;11.07;;;5.30;;
39772;SDS011;25451;51.960;6.250;2023-11-22T12:11:34;9.23;;;4.77;;
39772;SDS011;25451;51.960;6.250;2023-11-22T12:13:59;10.20;;;4.70;;
39772;SDS011;25451;51.960;6.250;2023-11-22T12:16:25;10.17;;;4.37;;
39772;SDS011;25451;51.960;6.250;2023-11-22T12:18:50;11.38;;;4.75;;
39772;SDS011;25451;51.960;6.250;2023-11-22T12:21:16;9.88;;;4.75;;
39772;SDS011;25451;51.960;6.250;2023-11-22T12:23:43;10.20;;;4.60;;
39772;SDS011;25451;51.960;6.250;2023-11-22T12:26:17;9.65;;;4.50;;
39772;SDS011;25451;51.960;6.250;2023-11-22T12:28:45;9.98;;;4.57;;
39772;SDS011;25451;51.960;6.250;2023-11-22T12:31:13;11.55;;;4.43;;
39772;SDS011;25451;51.960;6.250;2023-11-22T12:33:43;12.18;;;4.57;;
39772;SDS011;25451;51.960;6.250;2023-11-22T12:36:10;8.77;;;4.10;;
39772;SDS011;25451;51.960;6.250;2023-11-22T12:38:40;9.57;;;4.38;;
39772;SDS011;25451;51.960;6.250;2023-11-22T12:41:05;8.70;;;4.45;;
39772;SDS011;25451;51.960;6.250;2023-11-22T12:43:31;9.25;;;4.45;;
39772;SDS011;25451;51.960;6.250;2023-11-22T12:46:04;8.33;;;4.13;;
39772;SDS011;25451;51.960;6.250;2023-11-22T12:48:35;12.95;;;4.80;;
39772;SDS011;25451;51.960;6.250;2023-11-22T12:51:01;10.33;;;4.60;;
39772;SDS011;25451;51.960;6.250;2023-11-22T12:53:26;10.27;;;4.63;;
39772;SDS011;25451;51.960;6.250;2023-11-22T12:55:55;9.63;;;4.47;;
39772;SDS011;25451;51.960;6.250;2023-11-22T12:58:22;10.23;;;4.60;;
39772;SDS011;25451;51.960;6.250;2023-11-22T13:00:49;10.38;;;4.85;;
39772;SDS011;25451;51.960;6.250;2023-11-22T13:03:16;10.87;;;5.00;;
39772;SDS011;25451;51.960;6.250;2023-11-22T13:05:44;10.77;;;4.72;;
39772;SDS011;25451;51.960;6.250;2023-11-22T13:08:10;11.30;;;4.77;;
39772;SDS011;25451;51.960;6.250;2023-11-22T13:10:38;9.98;;;4.75;;
39772;SDS011;25451;51.960;6.250;2023-11-22T13:13:04;12.45;;;4.70;;
39772;SDS011;25451;51.960;6.250;2023-11-22T13:15:33;11.30;;;5.00;;
39772;SDS011;25451;51.960;6.250;2023-11-22T13:17:59;11.80;;;5.60;;
39772;SDS011;25451;51.960;6.250;2023-11-22T13:20:25;14.15;;;5.60;;
39772;SDS011;25451;51.960;6.250;2023-11-22T13:22:51;12.90;;;5.63;;
39772;SDS011;25451;51.960;6.250;2023-11-22T13:25:17;13.47;;;5.93;;
39772;SDS011;25451;51.960;6.250;2023-11-22T13:27:44;12.88;;;5.97;;
39772;SDS011;25451;51.960;6.250;2023-11-22T13:30:13;12.43;;;6.28;;
39772;SDS011;25451;51.960;6.250;2023-11-22T13:32:47;13.35;;;5.88;;
39772;SDS011;25451;51.960;6.250;2023-11-22T13:35:14;15.98;;;5.90;;
39772;SDS011;25451;51.960;6.250;2023-11-22T13:37:43;17.20;;;6.90;;
39772;SDS011;25451;51.960;6.250;2023-11-22T13:40:12;14.60;;;6.00;;
39772;SDS011;25451;51.960;6.250;2023-11-22T13:42:45;13.00;;;6.20;;
39772;SDS011;25451;51.960;6.250;2023-11-22T13:45:13;15.43;;;6.20;;
39772;SDS011;25451;51.960;6.250;2023-11-22T13:47:45;14.85;;;6.35;;
39772;SDS011;25451;51.960;6.250;2023-11-22T13:50:16;16.10;;;6.65;;
39772;SDS011;25451;51.960;6.250;2023-11-22T13:52:50;13.63;;;5.93;;
39772;SDS011;25451;51.960;6.250;2023-11-22T13:55:16;15.10;;;6.10;;
39772;SDS011;25451;51.960;6.250;2023-11-22T13:57:55;15.37;;;6.60;;
39772;SDS011;25451;51.960;6.250;2023-11-22T14:00:24;17.60;;;7.07;;
39772;SDS011;25451;51.960;6.250;2023-11-22T14:02:58;13.73;;;6.35;;
39772;SDS011;25451;51.960;6.250;2023-11-22T14:05:30;15.32;;;6.93;;
39772;SDS011;25451;51.960;6.250;2023-11-22T14:07:56;17.65;;;7.30;;
39772;SDS011;25451;51.960;6.250;2023-11-22T14:10:22;19.37;;;6.80;;
39772;SDS011;25451;51.960;6.250;2023-11-22T14:12:48;15.88;;;7.13;;
39772;SDS011;25451;51.960;6.250;2023-11-22T14:15:14;18.13;;;8.02;;
39772;SDS011;25451;51.960;6.250;2023-11-22T14:17:40;18.70;;;8.50;;
39772;SDS011;25451;51.960;6.250;2023-11-22T14:22:34;18.40;;;7.67;;
39772;SDS011;25451;51.960;6.250;2023-11-22T14:24:59;17.05;;;7.60;;
39772;SDS011;25451;51.960;6.250;2023-11-22T14:27:25;17.77;;;7.50;;
39772;SDS011;25451;51.960;6.250;2023-11-22T14:29:52;20.27;;;8.00;;
39772;SDS011;25451;51.960;6.250;2023-11-22T14:32:19;16.20;;;6.15;;
39772;SDS011;25451;51.960;6.250;2023-11-22T14:34:45;18.33;;;7.72;;
39772;SDS011;25451;51.960;6.250;2023-11-22T14:37:11;22.87;;;8.57;;
39772;SDS011;25451;51.960;6.250;2023-11-22T14:39:38;20.60;;;8.23;;
39772;SDS011;25451;51.960;6.250;2023-11-22T14:42:03;18.55;;;8.60;;
39772;SDS011;25451;51.960;6.250;2023-11-22T14:44:31;21.25;;;8.75;;
39772;SDS011;25451;51.960;6.250;2023-11-22T14:46:56;22.10;;;8.93;;
39772;SDS011;25451;51.960;6.250;2023-11-22T14:49:24;20.45;;;8.18;;
39772;SDS011;25451;51.960;6.250;2023-11-22T14:51:49;22.40;;;8.70;;